sensor_id;sensor_type;location;lat;lon;timestamp;P1;durP1;ratioP1;P2;durP2;ratioP2
75793;SDS011;64418;47.536;19.074;2023-07-02T00:00:33;13.27;;;8.80;;
75793;SDS011;64418;47.536;19.074;2023-07-02T00:03:23;13.70;;;8.53;;
75793;SDS011;64418;47.536;19.074;2023-07-02T00:06:11;13.75;;;8.55;;
75793;SDS011;64418;47.536;19.074;2023-07-02T00:09:03;13.45;;;8.23;;
75793;SDS011;64418;47.536;19.074;2023-07-02T00:11:55;13.00;;;7.90;;
75793;SDS011;64418;47.536;19.074;2023-07-02T00:14:45;12.93;;;7.82;;
75793;SDS011;64418;47.536;19.074;2023-07-02T00:17:37;11.83;;;7.27;;
75793;SDS011;64418;47.536;19.074;2023-07-02T00:20:28;12.48;;;8.18;;
75793;SDS011;64418;47.536;19.074;2023-07-02T00:23:19;12.50;;;7.90;;
75793;SDS011;64418;47.536;19.074;2023-07-02T00:26:09;12.95;;;8.32;;
75793;SDS011;64418;47.536;19.074;2023-07-02T00:28:58;13.23;;;7.78;;
75793;SDS011;64418;47.536;19.074;2023-07-02T00:31:49;12.53;;;7.57;;
75793;SDS011;64418;47.536;19.074;2023-07-02T00:34:40;12.10;;;8.05;;
75793;SDS011;64418;47.536;19.074;2023-07-02T00:37:30;12.98;;;8.10;;
75793;SDS011;64418;47.536;19.074;2023-07-02T00:40:20;11.20;;;7.78;;
75793;SDS011;64418;47.536;19.074;2023-07-02T00:43:10;11.60;;;7.93;;
75793;SDS011;64418;47.536;19.074;2023-07-02T00:46:02;14.10;;;7.60;;
75793;SDS011;64418;47.536;19.074;2023-07-02T00:48:53;13.23;;;8.15;;
75793;SDS011;64418;47.536;19.074;2023-07-02T00:51:44;12.52;;;7.57;;
75793;SDS011;64418;47.536;19.074;2023-07-02T00:54:34;12.35;;;7.22;;
75793;SDS011;64418;47.536;19.074;2023-07-02T00:57:24;11.32;;;7.62;;
75793;SDS011;64418;47.536;19.074;2023-07-02T01:00:14;9.87;;;7.00;;
75793;SDS011;64418;47.536;19.074;2023-07-02T01:03:06;11.57;;;7.43;;
75793;SDS011;64418;47.536;19.074;2023-07-02T01:05:57;13.25;;;8.27;;
75793;SDS011;64418;47.536;19.074;2023-07-02T01:08:47;13.90;;;7.45;;
75793;SDS011;64418;47.536;19.074;2023-07-02T01:11:36;13.73;;;7.80;;
75793;SDS011;64418;47.536;19.074;2023-07-02T01:14:30;10.57;;;6.73;;
75793;SDS011;64418;47.536;19.074;2023-07-02T01:17:22;12.93;;;7.20;;
75793;SDS011;64418;47.536;19.074;2023-07-02T01:20:14;11.93;;;7.53;;
75793;SDS011;64418;47.536;19.074;2023-07-02T01:23:04;12.10;;;6.95;;
75793;SDS011;64418;47.536;19.074;2023-07-02T01:25:55;11.15;;;6.97;;
75793;SDS011;64418;47.536;19.074;2023-07-02T01:28:45;12.00;;;6.77;;
75793;SDS011;64418;47.536;19.074;2023-07-02T01:31:35;13.73;;;7.35;;
75793;SDS011;64418;47.536;19.074;2023-07-02T01:34:24;11.07;;;6.82;;
75793;SDS011;64418;47.536;19.074;2023-07-02T01:37:16;11.88;;;6.90;;
75793;SDS011;64418;47.536;19.074;2023-07-02T01:40:07;7.85;;;5.78;;
75793;SDS011;64418;47.536;19.074;2023-07-02T01:42:58;9.47;;;5.87;;
75793;SDS011;64418;47.536;19.074;2023-07-02T01:45:48;10.48;;;6.10;;
75793;SDS011;64418;47.536;19.074;2023-07-02T01:48:38;8.90;;;6.43;;
75793;SDS011;64418;47.536;19.074;2023-07-02T01:51:28;10.30;;;6.75;;
75793;SDS011;64418;47.536;19.074;2023-07-02T01:54:17;13.68;;;6.72;;
75793;SDS011;64418;47.536;19.074;2023-07-02T01:57:07;11.13;;;6.10;;
75793;SDS011;64418;47.536;19.074;2023-07-02T01:59:57;12.32;;;6.45;;
75793;SDS011;64418;47.536;19.074;2023-07-02T02:02:47;9.80;;;5.97;;
75793;SDS011;64418;47.536;19.074;2023-07-02T02:05:40;10.05;;;6.80;;
75793;SDS011;64418;47.536;19.074;2023-07-02T02:08:31;10.55;;;6.90;;
75793;SDS011;64418;47.536;19.074;2023-07-02T02:11:22;12.47;;;7.03;;
75793;SDS011;64418;47.536;19.074;2023-07-02T02:14:12;11.90;;;6.95;;
75793;SDS011;64418;47.536;19.074;2023-07-02T02:17:00;10.90;;;6.55;;
75793;SDS011;64418;47.536;19.074;2023-07-02T02:19:51;9.68;;;6.18;;
75793;SDS011;64418;47.536;19.074;2023-07-02T02:22:41;14.20;;;6.93;;
75793;SDS011;64418;47.536;19.074;2023-07-02T02:25:31;10.40;;;5.90;;
75793;SDS011;64418;47.536;19.074;2023-07-02T02:28:23;10.07;;;6.12;;
75793;SDS011;64418;47.536;19.074;2023-07-02T02:31:13;11.63;;;6.30;;
75793;SDS011;64418;47.536;19.074;2023-07-02T02:34:03;12.80;;;6.00;;
75793;SDS011;64418;47.536;19.074;2023-07-02T02:36:51;9.68;;;5.30;;
75793;SDS011;64418;47.536;19.074;2023-07-02T02:39:42;9.67;;;5.93;;
75793;SDS011;64418;47.536;19.074;2023-07-02T02:42:32;10.40;;;5.90;;
75793;SDS011;64418;47.536;19.074;2023-07-02T02:45:23;10.57;;;5.90;;
75793;SDS011;64418;47.536;19.074;2023-07-02T02:48:13;9.05;;;5.97;;
75793;SDS011;64418;47.536;19.074;2023-07-02T02:51:03;10.35;;;5.70;;
75793;SDS011;64418;47.536;19.074;2023-07-02T02:53:53;8.57;;;4.70;;
75793;SDS011;64418;47.536;19.074;2023-07-02T02:56:43;8.32;;;5.37;;
75793;SDS011;64418;47.536;19.074;2023-07-02T02:59:33;7.45;;;5.10;;
75793;SDS011;64418;47.536;19.074;2023-07-02T03:02:25;7.70;;;5.03;;
75793;SDS011;64418;47.536;19.074;2023-07-02T03:05:15;7.30;;;5.00;;
75793;SDS011;64418;47.536;19.074;2023-07-02T03:08:05;8.97;;;4.73;;
75793;SDS011;64418;47.536;19.074;2023-07-02T03:10:55;9.10;;;5.70;;
75793;SDS011;64418;47.536;19.074;2023-07-02T03:13:45;9.23;;;4.85;;
75793;SDS011;64418;47.536;19.074;2023-07-02T03:16:33;10.93;;;4.85;;
75793;SDS011;64418;47.536;19.074;2023-07-02T03:19:24;8.07;;;4.70;;
75793;SDS011;64418;47.536;19.074;2023-07-02T03:22:14;9.33;;;4.60;;
75793;SDS011;64418;47.536;19.074;2023-07-02T03:25:04;11.52;;;5.07;;
75793;SDS011;64418;47.536;19.074;2023-07-02T03:27:54;8.52;;;4.62;;
75793;SDS011;64418;47.536;19.074;2023-07-02T03:30:44;10.07;;;4.95;;
75793;SDS011;64418;47.536;19.074;2023-07-02T03:33:34;7.07;;;4.90;;
75793;SDS011;64418;47.536;19.074;2023-07-02T03:36:26;8.57;;;4.13;;
75793;SDS011;64418;47.536;19.074;2023-07-02T03:39:16;7.12;;;4.30;;
75793;SDS011;64418;47.536;19.074;2023-07-02T03:42:06;9.77;;;4.97;;
75793;SDS011;64418;47.536;19.074;2023-07-02T03:44:56;8.77;;;4.60;;
75793;SDS011;64418;47.536;19.074;2023-07-02T03:47:46;7.10;;;4.43;;
75793;SDS011;64418;47.536;19.074;2023-07-02T03:50:36;8.33;;;4.13;;
75793;SDS011;64418;47.536;19.074;2023-07-02T03:53:27;8.85;;;4.72;;
75793;SDS011;64418;47.536;19.074;2023-07-02T03:56:15;6.75;;;4.45;;
75793;SDS011;64418;47.536;19.074;2023-07-02T03:59:05;8.07;;;4.57;;
75793;SDS011;64418;47.536;19.074;2023-07-02T04:01:55;8.60;;;4.82;;
75793;SDS011;64418;47.536;19.074;2023-07-02T04:04:45;7.57;;;4.43;;
75793;SDS011;64418;47.536;19.074;2023-07-02T04:07:35;9.00;;;4.35;;
75793;SDS011;64418;47.536;19.074;2023-07-02T04:10:26;7.72;;;4.30;;
75793;SDS011;64418;47.536;19.074;2023-07-02T04:13:16;6.28;;;3.80;;
75793;SDS011;64418;47.536;19.074;2023-07-02T04:16:07;8.52;;;4.30;;
75793;SDS011;64418;47.536;19.074;2023-07-02T04:18:57;6.30;;;4.27;;
75793;SDS011;64418;47.536;19.074;2023-07-02T04:21:46;6.53;;;4.65;;
75793;SDS011;64418;47.536;19.074;2023-07-02T04:24:36;7.60;;;4.82;;
75793;SDS011;64418;47.536;19.074;2023-07-02T04:27:28;8.43;;;4.70;;
75793;SDS011;64418;47.536;19.074;2023-07-02T04:30:18;9.23;;;4.87;;
75793;SDS011;64418;47.536;19.074;2023-07-02T04:33:08;7.47;;;4.40;;
75793;SDS011;64418;47.536;19.074;2023-07-02T04:35:56;7.95;;;4.40;;
75793;SDS011;64418;47.536;19.074;2023-07-02T04:38:46;6.55;;;4.15;;
75793;SDS011;64418;47.536;19.074;2023-07-02T04:41:35;6.35;;;4.40;;
75793;SDS011;64418;47.536;19.074;2023-07-02T04:44:27;8.15;;;4.10;;
75793;SDS011;64418;47.536;19.074;2023-07-02T04:47:17;7.87;;;4.17;;
75793;SDS011;64418;47.536;19.074;2023-07-02T04:50:07;8.68;;;4.05;;
75793;SDS011;64418;47.536;19.074;2023-07-02T04:52:57;6.80;;;4.20;;
75793;SDS011;64418;47.536;19.074;2023-07-02T04:55:47;6.95;;;4.00;;
75793;SDS011;64418;47.536;19.074;2023-07-02T04:58:37;6.25;;;4.07;;
75793;SDS011;64418;47.536;19.074;2023-07-02T05:01:29;6.23;;;3.40;;
75793;SDS011;64418;47.536;19.074;2023-07-02T05:04:18;7.15;;;3.80;;
75793;SDS011;64418;47.536;19.074;2023-07-02T05:07:09;6.50;;;3.62;;
75793;SDS011;64418;47.536;19.074;2023-07-02T05:09:59;5.20;;;3.85;;
75793;SDS011;64418;47.536;19.074;2023-07-02T05:12:48;9.43;;;3.92;;
75793;SDS011;64418;47.536;19.074;2023-07-02T05:15:36;6.93;;;3.77;;
75793;SDS011;64418;47.536;19.074;2023-07-02T05:18:27;7.32;;;3.67;;
75793;SDS011;64418;47.536;19.074;2023-07-02T05:21:20;5.55;;;3.70;;
75793;SDS011;64418;47.536;19.074;2023-07-02T05:24:10;6.87;;;3.75;;
75793;SDS011;64418;47.536;19.074;2023-07-02T05:27:00;7.78;;;3.75;;
75793;SDS011;64418;47.536;19.074;2023-07-02T05:29:50;6.90;;;3.77;;
75793;SDS011;64418;47.536;19.074;2023-07-02T05:32:40;5.47;;;3.40;;
75793;SDS011;64418;47.536;19.074;2023-07-02T05:35:31;5.82;;;3.42;;
75793;SDS011;64418;47.536;19.074;2023-07-02T05:38:21;6.65;;;3.70;;
75793;SDS011;64418;47.536;19.074;2023-07-02T05:41:17;7.28;;;3.90;;
75793;SDS011;64418;47.536;19.074;2023-07-02T05:44:07;5.93;;;3.80;;
75793;SDS011;64418;47.536;19.074;2023-07-02T05:46:57;6.90;;;3.55;;
75793;SDS011;64418;47.536;19.074;2023-07-02T05:49:47;7.22;;;3.50;;
75793;SDS011;64418;47.536;19.074;2023-07-02T05:52:38;5.25;;;3.53;;
75793;SDS011;64418;47.536;19.074;2023-07-02T05:55:28;6.32;;;3.70;;
75793;SDS011;64418;47.536;19.074;2023-07-02T05:58:16;7.70;;;4.07;;
75793;SDS011;64418;47.536;19.074;2023-07-02T06:01:06;6.03;;;3.83;;
75793;SDS011;64418;47.536;19.074;2023-07-02T06:03:56;7.10;;;3.67;;
75793;SDS011;64418;47.536;19.074;2023-07-02T06:06:46;8.07;;;3.33;;
75793;SDS011;64418;47.536;19.074;2023-07-02T06:09:37;5.60;;;3.40;;
75793;SDS011;64418;47.536;19.074;2023-07-02T06:12:28;7.50;;;3.70;;
75793;SDS011;64418;47.536;19.074;2023-07-02T06:15:18;6.50;;;3.70;;
75793;SDS011;64418;47.536;19.074;2023-07-02T06:18:06;6.28;;;4.10;;
75793;SDS011;64418;47.536;19.074;2023-07-02T06:20:57;5.60;;;3.62;;
75793;SDS011;64418;47.536;19.074;2023-07-02T06:23:46;8.23;;;3.60;;
75793;SDS011;64418;47.536;19.074;2023-07-02T06:26:38;7.50;;;3.77;;
75793;SDS011;64418;47.536;19.074;2023-07-02T06:29:28;6.72;;;3.50;;
75793;SDS011;64418;47.536;19.074;2023-07-02T06:32:18;6.22;;;3.70;;
75793;SDS011;64418;47.536;19.074;2023-07-02T06:35:08;6.10;;;3.85;;
75793;SDS011;64418;47.536;19.074;2023-07-02T06:37:56;6.18;;;3.70;;
75793;SDS011;64418;47.536;19.074;2023-07-02T06:40:47;4.80;;;3.40;;
75793;SDS011;64418;47.536;19.074;2023-07-02T06:43:41;5.95;;;3.60;;
75793;SDS011;64418;47.536;19.074;2023-07-02T06:46:32;6.93;;;3.60;;
75793;SDS011;64418;47.536;19.074;2023-07-02T06:49:22;5.80;;;3.45;;
75793;SDS011;64418;47.536;19.074;2023-07-02T06:52:12;4.68;;;3.37;;
75793;SDS011;64418;47.536;19.074;2023-07-02T06:55:03;5.77;;;3.40;;
75793;SDS011;64418;47.536;19.074;2023-07-02T06:57:54;6.22;;;3.40;;
75793;SDS011;64418;47.536;19.074;2023-07-02T07:00:46;7.28;;;3.62;;
75793;SDS011;64418;47.536;19.074;2023-07-02T07:03:36;6.62;;;3.92;;
75793;SDS011;64418;47.536;19.074;2023-07-02T07:06:26;7.22;;;3.90;;
75793;SDS011;64418;47.536;19.074;2023-07-02T07:09:16;10.10;;;3.43;;
75793;SDS011;64418;47.536;19.074;2023-07-02T07:12:07;5.97;;;3.30;;
75793;SDS011;64418;47.536;19.074;2023-07-02T07:14:57;6.57;;;3.60;;
75793;SDS011;64418;47.536;19.074;2023-07-02T07:17:49;7.53;;;3.22;;
75793;SDS011;64418;47.536;19.074;2023-07-02T07:20:38;5.10;;;3.28;;
75793;SDS011;64418;47.536;19.074;2023-07-02T07:23:28;5.40;;;3.30;;
75793;SDS011;64418;47.536;19.074;2023-07-02T07:26:18;6.28;;;3.78;;
75793;SDS011;64418;47.536;19.074;2023-07-02T07:29:08;11.98;;;3.55;;
75793;SDS011;64418;47.536;19.074;2023-07-02T07:31:58;5.37;;;3.22;;
75793;SDS011;64418;47.536;19.074;2023-07-02T07:34:53;5.78;;;3.50;;
75793;SDS011;64418;47.536;19.074;2023-07-02T07:37:43;4.90;;;3.20;;
75793;SDS011;64418;47.536;19.074;2023-07-02T07:40:33;5.37;;;3.15;;
75793;SDS011;64418;47.536;19.074;2023-07-02T07:43:21;5.43;;;3.20;;
75793;SDS011;64418;47.536;19.074;2023-07-02T07:46:11;4.90;;;3.08;;
75793;SDS011;64418;47.536;19.074;2023-07-02T07:49:01;7.37;;;3.28;;
75793;SDS011;64418;47.536;19.074;2023-07-02T07:51:53;4.40;;;2.90;;
75793;SDS011;64418;47.536;19.074;2023-07-02T07:54:43;4.47;;;2.90;;
75793;SDS011;64418;47.536;19.074;2023-07-02T07:57:34;6.82;;;3.28;;
75793;SDS011;64418;47.536;19.074;2023-07-02T08:00:25;5.12;;;3.05;;
75793;SDS011;64418;47.536;19.074;2023-07-02T08:03:23;5.07;;;3.50;;
75793;SDS011;64418;47.536;19.074;2023-07-02T08:06:11;3.73;;;2.77;;
75793;SDS011;64418;47.536;19.074;2023-07-02T08:09:03;3.70;;;3.00;;
75793;SDS011;64418;47.536;19.074;2023-07-02T08:11:53;5.75;;;2.90;;
75793;SDS011;64418;47.536;19.074;2023-07-02T08:14:43;4.93;;;2.95;;
75793;SDS011;64418;47.536;19.074;2023-07-02T08:17:32;5.82;;;2.95;;
75793;SDS011;64418;47.536;19.074;2023-07-02T08:20:23;4.73;;;2.70;;
75793;SDS011;64418;47.536;19.074;2023-07-02T08:23:13;7.97;;;3.10;;
75793;SDS011;64418;47.536;19.074;2023-07-02T08:26:02;5.10;;;2.97;;
75793;SDS011;64418;47.536;19.074;2023-07-02T08:28:52;9.93;;;3.17;;
75793;SDS011;64418;47.536;19.074;2023-07-02T08:31:42;13.50;;;3.00;;
75793;SDS011;64418;47.536;19.074;2023-07-02T08:34:32;5.07;;;2.20;;
75793;SDS011;64418;47.536;19.074;2023-07-02T08:37:22;5.20;;;3.00;;
75793;SDS011;64418;47.536;19.074;2023-07-02T08:40:16;5.32;;;2.60;;
75793;SDS011;64418;47.536;19.074;2023-07-02T08:43:09;3.87;;;2.62;;
75793;SDS011;64418;47.536;19.074;2023-07-02T08:45:59;4.37;;;2.78;;
75793;SDS011;64418;47.536;19.074;2023-07-02T08:48:49;5.67;;;2.80;;
75793;SDS011;64418;47.536;19.074;2023-07-02T08:51:40;4.47;;;2.90;;
75793;SDS011;64418;47.536;19.074;2023-07-02T08:54:30;5.32;;;3.10;;
75793;SDS011;64418;47.536;19.074;2023-07-02T08:57:20;5.22;;;2.80;;
75793;SDS011;64418;47.536;19.074;2023-07-02T09:00:15;5.10;;;2.95;;
75793;SDS011;64418;47.536;19.074;2023-07-02T09:03:12;4.50;;;2.90;;
75793;SDS011;64418;47.536;19.074;2023-07-02T09:06:03;4.95;;;3.00;;
75793;SDS011;64418;47.536;19.074;2023-07-02T09:09:03;5.03;;;3.25;;
75793;SDS011;64418;47.536;19.074;2023-07-02T09:11:53;5.45;;;2.40;;
75793;SDS011;64418;47.536;19.074;2023-07-02T09:14:43;4.68;;;3.03;;
75793;SDS011;64418;47.536;19.074;2023-07-02T09:17:35;4.33;;;2.83;;
75793;SDS011;64418;47.536;19.074;2023-07-02T09:20:32;4.28;;;3.00;;
75793;SDS011;64418;47.536;19.074;2023-07-02T09:23:20;5.95;;;3.00;;
75793;SDS011;64418;47.536;19.074;2023-07-02T09:26:19;7.45;;;3.65;;
75793;SDS011;64418;47.536;19.074;2023-07-02T09:29:10;5.72;;;3.37;;
75793;SDS011;64418;47.536;19.074;2023-07-02T09:32:01;4.63;;;2.90;;
75793;SDS011;64418;47.536;19.074;2023-07-02T09:34:55;4.15;;;3.30;;
75793;SDS011;64418;47.536;19.074;2023-07-02T09:37:47;4.32;;;3.55;;
75793;SDS011;64418;47.536;19.074;2023-07-02T09:40:37;5.95;;;3.58;;
75793;SDS011;64418;47.536;19.074;2023-07-02T09:43:33;6.55;;;3.50;;
75793;SDS011;64418;47.536;19.074;2023-07-02T09:46:24;5.90;;;3.80;;
75793;SDS011;64418;47.536;19.074;2023-07-02T09:49:15;4.65;;;3.10;;
75793;SDS011;64418;47.536;19.074;2023-07-02T09:52:09;6.43;;;3.10;;
75793;SDS011;64418;47.536;19.074;2023-07-02T09:54:58;6.00;;;3.12;;
75793;SDS011;64418;47.536;19.074;2023-07-02T09:57:48;4.87;;;3.42;;
75793;SDS011;64418;47.536;19.074;2023-07-02T10:00:38;7.13;;;3.10;;
75793;SDS011;64418;47.536;19.074;2023-07-02T10:03:30;4.95;;;3.67;;
75793;SDS011;64418;47.536;19.074;2023-07-02T10:06:21;8.05;;;3.15;;
75793;SDS011;64418;47.536;19.074;2023-07-02T10:09:12;4.65;;;2.80;;
75793;SDS011;64418;47.536;19.074;2023-07-02T10:12:14;6.68;;;3.60;;
75793;SDS011;64418;47.536;19.074;2023-07-02T10:15:05;5.33;;;3.10;;
75793;SDS011;64418;47.536;19.074;2023-07-02T10:17:56;7.30;;;3.08;;
75793;SDS011;64418;47.536;19.074;2023-07-02T10:20:47;6.53;;;3.40;;
75793;SDS011;64418;47.536;19.074;2023-07-02T10:23:35;4.87;;;3.35;;
75793;SDS011;64418;47.536;19.074;2023-07-02T10:26:27;6.30;;;3.05;;
75793;SDS011;64418;47.536;19.074;2023-07-02T10:29:18;5.00;;;3.17;;
75793;SDS011;64418;47.536;19.074;2023-07-02T10:32:09;5.75;;;2.97;;
75793;SDS011;64418;47.536;19.074;2023-07-02T10:34:59;4.37;;;3.10;;
75793;SDS011;64418;47.536;19.074;2023-07-02T10:37:49;4.95;;;3.30;;
75793;SDS011;64418;47.536;19.074;2023-07-02T10:40:39;4.68;;;3.03;;
75793;SDS011;64418;47.536;19.074;2023-07-02T10:43:30;3.70;;;2.77;;
75793;SDS011;64418;47.536;19.074;2023-07-02T10:46:21;8.52;;;3.10;;
75793;SDS011;64418;47.536;19.074;2023-07-02T10:49:11;6.28;;;3.12;;
75793;SDS011;64418;47.536;19.074;2023-07-02T10:52:02;6.20;;;3.00;;
75793;SDS011;64418;47.536;19.074;2023-07-02T10:54:53;4.80;;;2.78;;
75793;SDS011;64418;47.536;19.074;2023-07-02T10:57:43;6.77;;;3.13;;
75793;SDS011;64418;47.536;19.074;2023-07-02T11:00:39;7.68;;;2.90;;
75793;SDS011;64418;47.536;19.074;2023-07-02T11:03:32;6.60;;;3.00;;
75793;SDS011;64418;47.536;19.074;2023-07-02T11:06:22;5.12;;;2.85;;
75793;SDS011;64418;47.536;19.074;2023-07-02T11:09:17;6.45;;;2.83;;
75793;SDS011;64418;47.536;19.074;2023-07-02T11:12:08;6.37;;;2.57;;
75793;SDS011;64418;47.536;19.074;2023-07-02T11:15:07;3.25;;;2.83;;
75793;SDS011;64418;47.536;19.074;2023-07-02T11:18:07;6.70;;;3.20;;
75793;SDS011;64418;47.536;19.074;2023-07-02T11:20:56;4.80;;;2.83;;
75793;SDS011;64418;47.536;19.074;2023-07-02T11:23:46;4.87;;;3.00;;
75793;SDS011;64418;47.536;19.074;2023-07-02T11:26:36;4.97;;;3.00;;
75793;SDS011;64418;47.536;19.074;2023-07-02T11:29:27;5.97;;;2.72;;
75793;SDS011;64418;47.536;19.074;2023-07-02T11:32:18;5.03;;;2.78;;
75793;SDS011;64418;47.536;19.074;2023-07-02T11:35:10;6.75;;;2.83;;
75793;SDS011;64418;47.536;19.074;2023-07-02T11:38:02;5.78;;;3.10;;
75793;SDS011;64418;47.536;19.074;2023-07-02T11:40:52;3.70;;;2.50;;
75793;SDS011;64418;47.536;19.074;2023-07-02T11:43:42;6.20;;;2.80;;
75793;SDS011;64418;47.536;19.074;2023-07-02T11:46:32;5.03;;;2.85;;
75793;SDS011;64418;47.536;19.074;2023-07-02T11:49:22;4.32;;;2.42;;
75793;SDS011;64418;47.536;19.074;2023-07-02T11:52:14;4.30;;;2.35;;
75793;SDS011;64418;47.536;19.074;2023-07-02T11:55:04;4.70;;;2.80;;
75793;SDS011;64418;47.536;19.074;2023-07-02T11:57:56;6.97;;;2.87;;
75793;SDS011;64418;47.536;19.074;2023-07-02T12:00:46;7.37;;;2.80;;
75793;SDS011;64418;47.536;19.074;2023-07-02T12:03:34;4.75;;;2.42;;
75793;SDS011;64418;47.536;19.074;2023-07-02T12:06:24;3.75;;;2.20;;
75793;SDS011;64418;47.536;19.074;2023-07-02T12:09:16;5.03;;;2.73;;
75793;SDS011;64418;47.536;19.074;2023-07-02T12:12:06;5.57;;;2.47;;
75793;SDS011;64418;47.536;19.074;2023-07-02T12:14:56;6.22;;;2.78;;
75793;SDS011;64418;47.536;19.074;2023-07-02T12:17:46;4.35;;;2.30;;
75793;SDS011;64418;47.536;19.074;2023-07-02T12:20:36;3.15;;;2.20;;
75793;SDS011;64418;47.536;19.074;2023-07-02T12:23:24;6.23;;;2.40;;
75793;SDS011;64418;47.536;19.074;2023-07-02T12:26:16;3.97;;;2.40;;
75793;SDS011;64418;47.536;19.074;2023-07-02T12:29:06;6.95;;;2.10;;
75793;SDS011;64418;47.536;19.074;2023-07-02T12:31:57;3.95;;;2.22;;
75793;SDS011;64418;47.536;19.074;2023-07-02T12:34:47;8.18;;;2.80;;
75793;SDS011;64418;47.536;19.074;2023-07-02T12:37:42;5.40;;;2.37;;
75793;SDS011;64418;47.536;19.074;2023-07-02T12:40:33;4.53;;;2.50;;
75793;SDS011;64418;47.536;19.074;2023-07-02T12:46:48;5.43;;;2.50;;
75793;SDS011;64418;47.536;19.074;2023-07-02T12:49:38;2.80;;;2.10;;
75793;SDS011;64418;47.536;19.074;2023-07-02T12:52:28;2.40;;;1.87;;
75793;SDS011;64418;47.536;19.074;2023-07-02T12:55:18;3.42;;;1.80;;
75793;SDS011;64418;47.536;19.074;2023-07-02T12:58:08;4.43;;;2.03;;
75793;SDS011;64418;47.536;19.074;2023-07-02T13:00:58;5.47;;;1.85;;
75793;SDS011;64418;47.536;19.074;2023-07-02T13:03:48;2.28;;;1.50;;
75793;SDS011;64418;47.536;19.074;2023-07-02T13:06:38;8.63;;;1.63;;
75793;SDS011;64418;47.536;19.074;2023-07-02T13:09:29;5.55;;;1.30;;
75793;SDS011;64418;47.536;19.074;2023-07-02T13:12:19;2.28;;;1.30;;
75793;SDS011;64418;47.536;19.074;2023-07-02T13:15:10;1.77;;;1.10;;
75793;SDS011;64418;47.536;19.074;2023-07-02T13:18:02;3.87;;;1.35;;
75793;SDS011;64418;47.536;19.074;2023-07-02T13:20:52;2.83;;;0.90;;
75793;SDS011;64418;47.536;19.074;2023-07-02T13:23:40;2.53;;;1.23;;
75793;SDS011;64418;47.536;19.074;2023-07-02T13:26:30;1.60;;;0.98;;
75793;SDS011;64418;47.536;19.074;2023-07-02T13:29:20;4.53;;;1.10;;
75793;SDS011;64418;47.536;19.074;2023-07-02T13:32:10;6.97;;;1.48;;
75793;SDS011;64418;47.536;19.074;2023-07-02T13:35:02;3.33;;;1.30;;
75793;SDS011;64418;47.536;19.074;2023-07-02T13:37:52;2.35;;;1.17;;
75793;SDS011;64418;47.536;19.074;2023-07-02T13:40:42;2.50;;;1.33;;
75793;SDS011;64418;47.536;19.074;2023-07-02T13:43:32;3.72;;;1.12;;
75793;SDS011;64418;47.536;19.074;2023-07-02T13:46:22;2.15;;;1.20;;
75793;SDS011;64418;47.536;19.074;2023-07-02T13:49:12;3.03;;;1.00;;
75793;SDS011;64418;47.536;19.074;2023-07-02T13:52:04;1.42;;;1.12;;
75793;SDS011;64418;47.536;19.074;2023-07-02T13:54:54;2.62;;;1.25;;
75793;SDS011;64418;47.536;19.074;2023-07-02T13:57:45;2.28;;;1.12;;
75793;SDS011;64418;47.536;19.074;2023-07-02T14:00:36;2.00;;;1.15;;
75793;SDS011;64418;47.536;19.074;2023-07-02T14:03:24;2.87;;;1.20;;
75793;SDS011;64418;47.536;19.074;2023-07-02T14:06:15;7.57;;;1.37;;
75793;SDS011;64418;47.536;19.074;2023-07-02T14:09:06;2.28;;;1.27;;
75793;SDS011;64418;47.536;19.074;2023-07-02T14:11:56;2.90;;;1.37;;
75793;SDS011;64418;47.536;19.074;2023-07-02T14:14:46;1.30;;;1.10;;
75793;SDS011;64418;47.536;19.074;2023-07-02T14:17:38;2.73;;;1.03;;
75793;SDS011;64418;47.536;19.074;2023-07-02T14:20:28;1.73;;;1.02;;
75793;SDS011;64418;47.536;19.074;2023-07-02T14:23:18;1.65;;;1.20;;
75793;SDS011;64418;47.536;19.074;2023-07-02T14:26:08;3.62;;;1.08;;
75793;SDS011;64418;47.536;19.074;2023-07-02T14:28:58;2.92;;;1.42;;
75793;SDS011;64418;47.536;19.074;2023-07-02T14:31:48;2.13;;;1.30;;
75793;SDS011;64418;47.536;19.074;2023-07-02T14:34:39;2.15;;;1.40;;
75793;SDS011;64418;47.536;19.074;2023-07-02T14:37:31;2.17;;;1.50;;
75793;SDS011;64418;47.536;19.074;2023-07-02T14:40:21;4.05;;;1.30;;
75793;SDS011;64418;47.536;19.074;2023-07-02T14:43:11;2.67;;;1.52;;
75793;SDS011;64418;47.536;19.074;2023-07-02T14:46:01;2.23;;;1.30;;
75793;SDS011;64418;47.536;19.074;2023-07-02T14:48:52;2.78;;;1.30;;
75793;SDS011;64418;47.536;19.074;2023-07-02T14:51:44;3.62;;;1.40;;
75793;SDS011;64418;47.536;19.074;2023-07-02T14:54:34;3.10;;;1.40;;
75793;SDS011;64418;47.536;19.074;2023-07-02T14:57:25;3.70;;;1.45;;
75793;SDS011;64418;47.536;19.074;2023-07-02T15:00:15;2.80;;;1.40;;
75793;SDS011;64418;47.536;19.074;2023-07-02T15:03:05;1.65;;;1.25;;
75793;SDS011;64418;47.536;19.074;2023-07-02T15:06:04;2.45;;;0.98;;
75793;SDS011;64418;47.536;19.074;2023-07-02T15:08:57;2.85;;;1.40;;
75793;SDS011;64418;47.536;19.074;2023-07-02T15:11:47;2.30;;;1.50;;
75793;SDS011;64418;47.536;19.074;2023-07-02T15:14:38;3.10;;;1.53;;
75793;SDS011;64418;47.536;19.074;2023-07-02T15:17:28;4.07;;;1.30;;
75793;SDS011;64418;47.536;19.074;2023-07-02T15:20:18;4.57;;;1.20;;
75793;SDS011;64418;47.536;19.074;2023-07-02T15:23:08;2.75;;;1.25;;
75793;SDS011;64418;47.536;19.074;2023-07-02T15:26:02;2.00;;;1.42;;
75793;SDS011;64418;47.536;19.074;2023-07-02T15:28:54;3.70;;;1.30;;
75793;SDS011;64418;47.536;19.074;2023-07-02T15:31:45;3.60;;;1.33;;
75793;SDS011;64418;47.536;19.074;2023-07-02T15:34:35;1.90;;;1.30;;
75793;SDS011;64418;47.536;19.074;2023-07-02T15:37:23;5.28;;;1.48;;
75793;SDS011;64418;47.536;19.074;2023-07-02T15:40:13;2.87;;;1.30;;
75793;SDS011;64418;47.536;19.074;2023-07-02T15:43:05;3.97;;;1.13;;
75793;SDS011;64418;47.536;19.074;2023-07-02T15:45:55;5.85;;;1.08;;
75793;SDS011;64418;47.536;19.074;2023-07-02T15:48:45;1.75;;;1.05;;
75793;SDS011;64418;47.536;19.074;2023-07-02T15:51:35;3.08;;;0.88;;
75793;SDS011;64418;47.536;19.074;2023-07-02T15:54:26;2.12;;;1.20;;
75793;SDS011;64418;47.536;19.074;2023-07-02T15:57:16;1.50;;;0.87;;
75793;SDS011;64418;47.536;19.074;2023-07-02T16:00:11;8.27;;;1.52;;
75793;SDS011;64418;47.536;19.074;2023-07-02T16:03:03;6.12;;;1.02;;
75793;SDS011;64418;47.536;19.074;2023-07-02T16:05:55;1.70;;;1.17;;
75793;SDS011;64418;47.536;19.074;2023-07-02T16:08:46;1.95;;;1.10;;
75793;SDS011;64418;47.536;19.074;2023-07-02T16:11:37;2.20;;;1.60;;
75793;SDS011;64418;47.536;19.074;2023-07-02T16:14:27;1.87;;;1.33;;
75793;SDS011;64418;47.536;19.074;2023-07-02T16:17:20;2.15;;;1.52;;
75793;SDS011;64418;47.536;19.074;2023-07-02T16:20:11;1.90;;;1.50;;
75793;SDS011;64418;47.536;19.074;2023-07-02T16:23:02;2.15;;;1.50;;
75793;SDS011;64418;47.536;19.074;2023-07-02T16:25:55;2.07;;;1.60;;
75793;SDS011;64418;47.536;19.074;2023-07-02T16:28:46;2.83;;;1.87;;
75793;SDS011;64418;47.536;19.074;2023-07-02T16:31:36;5.07;;;1.83;;
75793;SDS011;64418;47.536;19.074;2023-07-02T16:34:31;4.93;;;1.70;;
75793;SDS011;64418;47.536;19.074;2023-07-02T16:37:21;2.60;;;1.85;;
75793;SDS011;64418;47.536;19.074;2023-07-02T16:40:11;2.43;;;1.73;;
75793;SDS011;64418;47.536;19.074;2023-07-02T16:48:12;3.37;;;1.48;;
75793;SDS011;64418;47.536;19.074;2023-07-02T16:51:03;1.70;;;1.40;;
75793;SDS011;64418;47.536;19.074;2023-07-02T16:53:57;2.97;;;1.37;;
75793;SDS011;64418;47.536;19.074;2023-07-02T16:56:48;3.60;;;1.60;;
75793;SDS011;64418;47.536;19.074;2023-07-02T17:03:04;1.80;;;1.23;;